Time;durP1;ratioP1;P1;durP2;ratioP2;P2;SDS_P1;SDS_P2;PMS_P1;PMS_P2;Temp;Humidity;BMP_temperature;BMP_pressure;BME280_temperature;BME280_humidity;BME280_pressure;Samples;Min_cycle;Max_cycle;Signal;HPM_P1;HPM_P2
2021/07/31 00:01:48;;;;;;;5.25;3.90;;;;;;;17.66;86.84;95868.56;5102470;28;20601;-75
2021/07/31 00:04:16;;;;;;;10.23;3.72;;;;;;;17.72;86.26;95862.34;5102035;28;20048;-74
2021/07/31 00:06:42;;;;;;;6.82;4.00;;;;;;;17.81;85.44;95870.34;5102271;28;20040;-74
2021/07/31 00:09:09;;;;;;;5.90;3.67;;;;;;;17.91;85.95;95863.38;5101911;28;20055;-74
2021/07/31 00:11:35;;;;;;;5.72;3.30;;;;;;;18.00;85.70;95861.88;5102196;28;20052;-74
2021/07/31 00:14:01;;;;;;;5.30;3.58;;;;;;;18.07;84.69;95860.38;5102423;28;20065;-74
2021/07/31 00:16:28;;;;;;;6.35;3.40;;;;;;;18.12;83.61;95857.28;5101724;28;20064;-74
2021/07/31 00:18:54;;;;;;;7.50;3.60;;;;;;;18.15;83.36;95864.78;5101947;28;20044;-74
2021/07/31 00:21:23;;;;;;;5.60;3.53;;;;;;;18.24;84.49;95859.75;5102234;28;20044;-74
2021/07/31 00:23:49;;;;;;;5.18;3.55;;;;;;;18.30;84.05;95862.94;5101363;28;20055;-74
2021/07/31 00:26:16;;;;;;;4.63;3.35;;;;;;;18.35;84.34;95860.63;5102271;28;20071;-74
2021/07/31 00:28:42;;;;;;;6.30;3.30;;;;;;;18.38;83.41;95851.63;5091254;28;20051;-74
2021/07/31 00:31:09;;;;;;;7.28;3.75;;;;;;;18.43;83.18;95851.28;5101347;28;20051;-74
2021/07/31 00:33:35;;;;;;;4.80;3.55;;;;;;;18.43;82.36;95856.78;5101741;28;20197;-74
2021/07/31 00:36:01;;;;;;;6.80;3.72;;;;;;;18.34;82.60;95852.75;5101435;28;20450;-73
2021/07/31 00:38:29;;;;;;;4.95;3.60;;;;;;;18.24;83.24;95849.50;5101532;28;20677;-74
2021/07/31 00:40:56;;;;;;;7.55;4.07;;;;;;;18.23;84.23;95852.66;5101782;28;20534;-74
2021/07/31 00:43:22;;;;;;;7.15;3.72;;;;;;;18.16;84.24;95841.56;5101344;28;20650;-74
2021/07/31 00:45:49;;;;;;;7.43;4.32;;;;;;;18.14;84.37;95843.91;5101733;28;20044;-74
2021/07/31 00:48:16;;;;;;;7.28;3.72;;;;;;;18.14;84.77;95857.69;5101230;28;20432;-75
2021/07/31 00:50:42;;;;;;;5.07;3.58;;;;;;;18.10;83.90;95854.88;5102204;28;20043;-74
2021/07/31 00:53:09;;;;;;;4.68;3.42;;;;;;;18.06;84.27;95853.25;5101991;28;20051;-74
2021/07/31 00:55:37;;;;;;;6.78;3.90;;;;;;;17.99;84.69;95841.00;5101774;28;20039;-74
2021/07/31 00:58:04;;;;;;;7.32;3.80;;;;;;;17.85;84.99;95838.09;5101212;28;20047;-74
2021/07/31 01:00:30;;;;;;;6.32;4.10;;;;;;;17.67;85.51;95853.63;5101453;28;20566;-77
2021/07/31 01:02:57;;;;;;;5.95;4.07;;;;;;;17.57;86.49;95840.50;5101840;28;20044;-74
2021/07/31 01:05:23;;;;;;;5.13;3.70;;;;;;;17.50;86.99;95843.19;5101788;28;20209;-74
2021/07/31 01:07:51;;;;;;;5.13;3.75;;;;;;;17.42;87.32;95837.59;5104676;28;20693;-74
2021/07/31 01:10:19;;;;;;;8.00;4.20;;;;;;;17.37;87.87;95835.16;5105639;28;20596;-74
2021/07/31 01:12:49;;;;;;;7.70;4.32;;;;;;;17.29;87.51;95828.00;5105531;28;20051;-73
2021/07/31 01:15:16;;;;;;;7.72;4.50;;;;;;;17.28;87.83;95834.69;5105507;28;20502;-75
2021/07/31 01:17:43;;;;;;;5.47;4.38;;;;;;;17.30;87.97;95831.53;5105532;28;20739;-74
2021/07/31 01:20:10;;;;;;;6.15;4.05;;;;;;;17.27;87.61;95827.56;5105656;28;20050;-74
2021/07/31 01:22:38;;;;;;;7.05;4.18;;;;;;;17.29;88.00;95832.72;5105551;28;20054;-74
2021/07/31 01:25:06;;;;;;;7.78;4.32;;;;;;;17.27;88.38;95829.53;5105288;28;20047;-74
2021/07/31 01:27:34;;;;;;;8.57;4.55;;;;;;;17.29;88.17;95840.97;5103682;28;20059;-74
2021/07/31 01:30:01;;;;;;;7.03;4.65;;;;;;;17.27;87.72;95843.28;5104706;28;20044;-76
2021/07/31 01:32:27;;;;;;;12.77;4.65;;;;;;;17.28;87.28;95847.63;5104874;28;20059;-74
2021/07/31 01:34:53;;;;;;;5.75;3.92;;;;;;;17.29;87.20;95855.53;5104936;28;20044;-73
2021/07/31 01:37:30;;;;;;;10.13;4.68;;;;;;;17.29;86.78;95858.28;5105022;28;20071;-73
2021/07/31 01:39:58;;;;;;;8.07;4.65;;;;;;;17.35;86.80;95864.22;5105269;28;20039;-74
2021/07/31 01:42:24;;;;;;;6.57;4.40;;;;;;;17.33;85.57;95859.13;5105405;28;20048;-74
2021/07/31 01:44:51;;;;;;;6.88;4.30;;;;;;;17.30;85.78;95857.09;5104787;28;20696;-74
2021/07/31 01:47:17;;;;;;;5.68;3.78;;;;;;;17.32;86.17;95854.75;5105462;28;20052;-74
2021/07/31 01:49:43;;;;;;;7.18;4.70;;;;;;;17.37;85.90;95857.19;5105069;28;20044;-74
2021/07/31 01:52:10;;;;;;;7.10;4.38;;;;;;;17.37;85.63;95859.94;5105051;28;20047;-73
2021/07/31 01:54:36;;;;;;;8.40;3.97;;;;;;;17.39;85.86;95857.63;5104999;28;20036;-73
2021/07/31 01:57:04;;;;;;;6.30;3.75;;;;;;;17.43;85.86;95855.69;5104544;28;20394;-74
2021/07/31 01:59:31;;;;;;;7.30;4.47;;;;;;;17.43;85.75;95855.69;5104536;28;20055;-74
2021/07/31 02:01:57;;;;;;;7.45;4.03;;;;;;;17.46;85.93;95857.69;5104706;28;20044;-73
2021/07/31 02:04:24;;;;;;;8.07;4.38;;;;;;;17.48;85.16;95852.59;5104709;28;20043;-73
2021/07/31 02:06:50;;;;;;;8.10;4.20;;;;;;;17.54;85.33;95855.00;5104400;28;20048;-74
2021/07/31 02:09:17;;;;;;;12.07;4.43;;;;;;;17.58;85.69;95866.88;5104463;28;20055;-74
2021/07/31 02:11:43;;;;;;;13.05;4.57;;;;;;;17.58;85.15;95866.88;5104269;28;20075;-73
2021/07/31 02:14:11;;;;;;;7.45;4.20;;;;;;;17.59;85.28;95851.94;5104190;28;20044;-73
2021/07/31 02:16:37;;;;;;;7.35;4.07;;;;;;;17.58;85.35;95861.38;5104669;28;20406;-73
2021/07/31 02:19:04;;;;;;;6.03;4.25;;;;;;;17.57;85.28;95865.28;5104592;28;20039;-73
2021/07/31 02:21:30;;;;;;;9.27;4.68;;;;;;;17.56;85.66;95863.72;5104531;28;20051;-73
2021/07/31 02:23:57;;;;;;;5.78;4.03;;;;;;;17.58;85.46;95861.38;5105016;28;20050;-73
2021/07/31 02:26:24;;;;;;;6.97;4.70;;;;;;;17.59;85.58;95858.25;5104513;28;20437;-74
2021/07/31 02:28:57;;;;;;;6.20;4.40;;;;;;;17.61;85.52;95868.88;5104403;27;20120;-74
2021/07/31 02:31:25;;;;;;;;;;;;;;;17.67;85.59;95870.13;5104519;28;20039;-74
2021/07/31 02:33:51;;;;;;;7.38;4.07;;;;;;;17.67;85.55;95859.13;5104032;28;19923;-73
2021/07/31 02:36:18;;;;;;;6.45;4.15;;;;;;;17.71;85.74;95859.97;5103913;28;20538;-73
2021/07/31 02:38:44;;;;;;;11.23;4.30;;;;;;;17.71;85.28;95865.47;5104435;28;20047;-73
2021/07/31 02:41:11;;;;;;;5.90;4.10;;;;;;;17.72;85.41;95864.28;5103711;28;20043;-73
2021/07/31 02:43:37;;;;;;;7.95;4.30;;;;;;;17.76;85.50;95862.41;5103468;28;20719;-73
2021/07/31 02:46:05;;;;;;;8.38;4.60;;;;;;;17.78;85.28;95868.31;5104125;28;20050;-73
2021/07/31 02:48:34;;;;;;;4.95;3.97;;;;;;;17.81;85.75;95869.53;5103550;28;20039;-73
2021/07/31 02:51:02;;;;;;;7.90;4.90;;;;;;;17.86;85.02;95867.25;5103931;28;20074;-74
2021/07/31 02:53:29;;;;;;;12.32;4.72;;;;;;;17.88;84.83;95859.38;5104003;28;20044;-73
2021/07/31 02:55:55;;;;;;;8.70;4.32;;;;;;;17.87;85.07;95863.31;5103589;28;20047;-73
2021/07/31 02:58:21;;;;;;;10.77;4.28;;;;;;;17.86;84.82;95856.22;5103531;28;20047;-73
2021/07/31 03:00:48;;;;;;;6.10;4.13;;;;;;;17.93;84.70;95844.47;5103438;28;20756;-73
2021/07/31 03:03:14;;;;;;;8.55;4.18;;;;;;;17.93;84.57;95844.47;5103728;28;20055;-73
2021/07/31 03:05:42;;;;;;;7.25;4.10;;;;;;;17.93;84.78;95859.03;5103687;28;20048;-73
2021/07/31 03:08:09;;;;;;;12.10;4.63;;;;;;;18.00;84.75;95853.59;5103259;28;20055;-73
2021/07/31 03:10:35;;;;;;;8.15;4.15;;;;;;;18.02;84.42;95857.97;5103280;28;20059;-73
2021/07/31 03:13:01;;;;;;;9.18;4.50;;;;;;;18.03;84.41;95852.06;5103443;28;20044;-74
2021/07/31 03:15:28;;;;;;;8.73;4.15;;;;;;;18.07;84.13;95846.59;5103538;28;20047;-73
2021/07/31 03:17:56;;;;;;;11.98;4.57;;;;;;;18.09;84.08;95850.56;5103625;28;20059;-73
2021/07/31 03:20:22;;;;;;;7.07;4.47;;;;;;;18.11;84.39;95845.44;5103063;28;20555;-73
2021/07/31 03:22:50;;;;;;;11.93;4.78;;;;;;;18.16;84.23;95836.03;5103335;28;20050;-73
2021/07/31 03:25:17;;;;;;;6.18;4.07;;;;;;;18.15;83.54;95834.47;5103082;28;20039;-73
2021/07/31 03:27:50;;;;;;;6.22;4.30;;;;;;;18.16;83.61;95838.78;5103295;27;20043;-74
2021/07/31 03:30:17;;;;;;;9.82;4.47;;;;;;;18.16;83.34;95831.31;5102005;28;20044;-73
2021/07/31 03:32:43;;;;;;;7.80;4.03;;;;;;;18.19;83.63;95829.78;5103051;28;20039;-73
2021/07/31 03:35:09;;;;;;;6.22;4.22;;;;;;;18.14;83.45;95832.88;5102920;28;20055;-74
2021/07/31 03:37:36;;;;;;;8.10;4.28;;;;;;;18.15;83.77;95835.25;5103055;28;20074;-73
2021/07/31 03:40:04;;;;;;;6.93;4.07;;;;;;;18.14;83.52;95824.63;5102995;28;20043;-73
2021/07/31 03:42:31;;;;;;;5.53;3.90;;;;;;;18.08;83.83;95831.66;5103450;28;20062;-73
2021/07/31 03:44:57;;;;;;;8.25;4.20;;;;;;;18.00;83.85;95834.31;5102557;28;20062;-73
2021/07/31 03:47:24;;;;;;;6.57;4.50;;;;;;;18.00;84.32;95822.50;5102777;28;20526;-73
2021/07/31 03:49:50;;;;;;;8.65;4.97;;;;;;;17.98;84.48;95825.66;5102632;28;20542;-73
2021/07/31 03:52:17;;;;;;;8.35;4.80;;;;;;;18.02;84.66;95844.19;5102648;28;20078;-73
2021/07/31 03:54:43;;;;;;;7.95;4.63;;;;;;;18.05;84.35;95846.97;5102739;28;20050;-73
2021/07/31 03:57:11;;;;;;;11.32;5.22;;;;;;;18.07;84.60;95849.34;5102534;28;20078;-73
2021/07/31 03:59:37;;;;;;;9.18;5.10;;;;;;;18.10;84.39;95854.09;5102563;28;20048;-73
2021/07/31 04:02:04;;;;;;;7.85;4.82;;;;;;;18.12;84.38;95858.06;5102717;28;20040;-73
2021/07/31 04:04:30;;;;;;;10.55;5.18;;;;;;;18.13;84.58;95853.34;5102185;28;20704;-74
2021/07/31 04:06:59;;;;;;;7.40;4.47;;;;;;;18.17;84.40;95859.69;5102225;28;20043;-73
2021/07/31 04:09:25;;;;;;;7.07;4.70;;;;;;;18.21;83.82;95860.50;5102390;28;20837;-73
2021/07/31 04:11:52;;;;;;;8.63;4.57;;;;;;;18.22;84.05;95862.09;5102012;28;20039;-73
2021/07/31 04:14:20;;;;;;;6.90;4.40;;;;;;;18.22;84.18;95862.91;5102209;28;20058;-73
2021/07/31 04:16:46;;;;;;;8.75;4.85;;;;;;;18.24;83.99;95862.50;5102316;28;20055;-74
2021/07/31 04:19:12;;;;;;;6.68;4.57;;;;;;;18.25;84.33;95861.31;5101839;28;20043;-73
2021/07/31 04:21:39;;;;;;;7.30;4.50;;;;;;;18.25;84.40;95856.59;5102377;28;20047;-72
2021/07/31 04:24:06;;;;;;;10.43;4.75;;;;;;;18.26;84.47;95860.16;5102093;28;20040;-73
2021/07/31 04:26:32;;;;;;;7.65;4.80;;;;;;;18.21;83.70;95860.50;5102091;28;20689;-73
2021/07/31 04:28:58;;;;;;;7.57;4.78;;;;;;;18.23;83.79;95864.47;5101880;28;20059;-73
2021/07/31 04:31:26;;;;;;;10.43;4.90;;;;;;;18.28;83.17;95859.78;5102441;28;20067;-73
2021/07/31 04:33:53;;;;;;;25.27;8.10;;;;;;;18.29;82.55;95864.91;5102254;28;20042;-73
2021/07/31 04:36:20;;;;;;;17.98;8.05;;;;;;;18.28;82.89;95865.31;5102021;28;20105;-72
2021/07/31 04:38:46;;;;;;;10.60;6.72;;;;;;;18.29;83.34;95864.91;5102124;28;20064;-73
2021/07/31 04:41:13;;;;;;;16.95;7.72;;;;;;;18.29;83.66;95853.91;5104669;28;20604;-73
2021/07/31 04:43:39;;;;;;;16.80;8.68;;;;;;;18.27;83.51;95856.25;5106017;28;20761;-73
2021/07/31 04:46:05;;;;;;;15.38;7.15;;;;;;;18.27;83.84;95853.50;5105754;28;20051;-74
2021/07/31 04:48:33;;;;;;;20.30;7.68;;;;;;;18.29;83.83;95836.56;5106074;28;20685;-72
2021/07/31 04:51:01;;;;;;;11.23;7.47;;;;;;;18.30;83.98;95836.19;5106481;28;20039;-72
2021/07/31 04:53:28;;;;;;;19.83;8.10;;;;;;;18.32;83.92;95839.34;5106121;28;20046;-73
2021/07/31 04:55:56;;;;;;;24.92;8.93;;;;;;;18.35;83.32;95826.78;5106184;28;20074;-73
2021/07/31 04:58:22;;;;;;;12.63;6.88;;;;;;;18.41;83.67;95834.31;5106623;28;20130;-73
2021/07/31 05:00:49;;;;;;;14.18;7.28;;;;;;;18.42;82.29;95841.38;5105953;28;20051;-73
2021/07/31 05:03:16;;;;;;;9.82;5.43;;;;;;;18.40;82.22;95846.50;5105714;28;20058;-73
2021/07/31 05:05:44;;;;;;;7.40;5.43;;;;;;;18.37;82.29;95844.50;5105784;28;20040;-72
2021/07/31 05:08:11;;;;;;;8.75;5.05;;;;;;;18.38;82.42;95848.88;5106150;28;20086;-73
2021/07/31 05:10:40;;;;;;;12.80;7.50;;;;;;;18.37;82.32;95854.72;5105613;28;20050;-73
2021/07/31 05:13:06;;;;;;;14.60;8.25;;;;;;;18.38;82.70;95846.09;5105839;28;20051;-73
2021/07/31 05:15:35;;;;;;;9.20;5.82;;;;;;;18.40;82.76;95857.53;5105765;28;20455;-73
2021/07/31 05:18:01;;;;;;;12.43;7.05;;;;;;;18.42;82.93;95859.91;5105829;28;20059;-74
2021/07/31 05:20:28;;;;;;;13.35;7.40;;;;;;;18.44;82.45;95858.38;5105827;28;20048;-73
2021/07/31 05:22:55;;;;;;;11.10;5.85;;;;;;;18.42;82.56;95874.47;5105524;28;20556;-73
2021/07/31 05:25:22;;;;;;;8.48;6.30;;;;;;;18.45;82.49;95865.44;5105016;28;20550;-73
2021/07/31 05:28:01;;;;;;;11.68;6.82;;;;;;;18.51;82.69;95863.13;5105284;27;20465;-73
2021/07/31 05:30:27;;;;;;;8.13;4.75;;;;;;;18.57;83.08;95861.59;5105596;28;20048;-73
2021/07/31 05:32:54;;;;;;;9.80;6.60;;;;;;;18.61;83.04;95861.66;5105705;28;20044;-73
2021/07/31 05:35:21;;;;;;;10.00;6.68;;;;;;;18.68;82.56;95867.22;5104986;28;20048;-73
2021/07/31 05:37:47;;;;;;;7.78;5.32;;;;;;;18.70;81.68;95853.88;5104660;28;20036;-73
2021/07/31 05:40:15;;;;;;;10.50;6.80;;;;;;;18.74;82.04;95861.00;5104626;28;20494;-73
2021/07/31 05:42:42;;;;;;;7.75;5.40;;;;;;;18.76;80.40;95861.41;5105045;28;20046;-73
2021/07/31 05:45:09;;;;;;;10.15;5.63;;;;;;;18.73;80.32;95864.13;5105331;28;20096;-73
2021/07/31 05:47:36;;;;;;;9.60;6.28;;;;;;;18.75;80.72;95867.31;5104764;28;20547;-73
2021/07/31 05:50:05;;;;;;;8.27;6.18;;;;;;;18.74;80.62;95871.22;5105066;28;20051;-73
2021/07/31 05:52:33;;;;;;;8.90;6.60;;;;;;;18.84;81.85;95865.00;5104417;28;20039;-72
2021/07/31 05:54:59;;;;;;;7.43;4.68;;;;;;;18.95;81.53;95865.88;5104937;28;20079;-73
2021/07/31 05:57:27;;;;;;;9.20;5.57;;;;;;;19.03;81.09;95870.25;5105097;28;20055;-73
2021/07/31 05:59:54;;;;;;;9.68;6.55;;;;;;;19.11;81.44;95867.56;5104937;28;20712;-73
2021/07/31 06:02:20;;;;;;;7.55;5.15;;;;;;;19.18;80.72;95871.13;5104619;28;20483;-73
2021/07/31 06:04:47;;;;;;;8.23;5.25;;;;;;;19.24;80.34;95872.34;5104624;28;20044;-73
2021/07/31 06:07:14;;;;;;;10.55;5.88;;;;;;;19.25;80.06;95870.38;5104994;28;20134;-73
2021/07/31 06:09:42;;;;;;;6.55;4.90;;;;;;;19.20;80.25;95866.00;5104774;28;20058;-73
2021/07/31 06:12:10;;;;;;;10.10;5.85;;;;;;;19.25;79.91;95868.41;5104498;28;20696;-73
2021/07/31 06:14:41;;;;;;;12.90;7.25;;;;;;;19.33;80.12;95857.41;5104664;28;20044;-74
2021/07/31 06:17:07;;;;;;;8.65;5.85;;;;;;;19.40;79.72;95863.75;5104823;28;20051;-73
2021/07/31 06:19:35;;;;;;;9.05;5.32;;;;;;;19.49;79.76;95849.59;5104621;28;20431;-73
2021/07/31 06:22:02;;;;;;;9.93;6.47;;;;;;;19.52;79.14;95854.34;5104154;28;20055;-72
2021/07/31 06:24:30;;;;;;;13.10;7.20;;;;;;;19.58;78.85;95852.03;5104680;28;20047;-73
2021/07/31 06:26:56;;;;;;;7.55;5.45;;;;;;;19.63;78.75;95857.16;5103939;28;20047;-73
2021/07/31 06:29:23;;;;;;;6.18;4.75;;;;;;;19.58;78.15;95854.78;5102702;28;20553;-73
2021/07/31 06:31:51;;;;;;;8.50;5.60;;;;;;;19.53;77.91;95859.50;5104009;28;20048;-73
2021/07/31 06:34:18;;;;;;;7.88;4.63;;;;;;;19.57;79.37;95856.72;5104009;28;20051;-73
2021/07/31 06:36:44;;;;;;;6.22;4.88;;;;;;;19.65;78.70;95860.34;5104221;28;20055;-73
2021/07/31 06:39:11;;;;;;;6.88;5.05;;;;;;;19.75;77.94;95854.06;5103788;28;20047;-73
2021/07/31 06:41:38;;;;;;;7.85;4.70;;;;;;;19.79;77.63;95852.91;5103563;28;20047;-73
2021/07/31 06:44:05;;;;;;;10.85;5.75;;;;;;;19.78;76.99;95856.03;5103835;28;20565;-73
2021/07/31 06:46:31;;;;;;;7.43;5.05;;;;;;;19.81;77.19;95855.28;5104153;28;20040;-73
2021/07/31 06:49:00;;;;;;;9.95;5.28;;;;;;;19.85;76.96;95861.63;5104039;28;20044;-73
2021/07/31 06:51:27;;;;;;;5.78;4.32;;;;;;;19.91;76.74;95851.75;5103404;28;20051;-73
2021/07/31 06:53:53;;;;;;;8.30;4.97;;;;;;;19.98;76.35;95853.75;5103700;28;20043;-73
2021/07/31 06:56:20;;;;;;;6.70;4.25;;;;;;;20.01;76.01;95856.53;5103432;28;20052;-73
2021/07/31 06:58:46;;;;;;;6.07;4.82;;;;;;;20.05;75.43;95849.03;5103783;28;20043;-73
2021/07/31 07:01:13;;;;;;;5.75;4.50;;;;;;;20.23;76.26;95842.75;5103299;28;20079;-73
2021/07/31 07:03:41;;;;;;;5.63;4.45;;;;;;;20.33;75.73;95847.50;5102791;28;20051;-73
2021/07/31 07:06:10;;;;;;;6.38;4.65;;;;;;;20.35;75.73;95850.66;5103215;28;20062;-72
2021/07/31 07:08:37;;;;;;;7.13;5.05;;;;;;;20.36;76.39;95845.91;5103188;28;20059;-73
2021/07/31 07:11:04;;;;;;;7.53;5.00;;;;;;;20.38;74.87;95849.09;5103071;28;20074;-73
2021/07/31 07:13:31;;;;;;;7.55;4.90;;;;;;;20.40;75.11;95852.22;5103335;28;20066;-73
2021/07/31 07:15:58;;;;;;;9.52;5.05;;;;;;;20.39;74.62;95848.69;5103504;28;20054;-76
2021/07/31 07:18:24;;;;;;;7.05;4.93;;;;;;;20.43;74.33;95846.72;5103174;28;20581;-74
2021/07/31 07:20:51;;;;;;;8.00;5.22;;;;;;;20.56;74.25;95839.63;5103021;28;20533;-73
2021/07/31 07:23:19;;;;;;;6.55;5.35;;;;;;;20.70;75.06;95843.59;5106004;28;20047;-72
2021/07/31 07:25:45;;;;;;;6.70;4.57;;;;;;;20.81;73.14;95833.28;5111507;28;20040;-73
2021/07/31 07:28:12;;;;;;;6.43;4.53;;;;;;;20.85;73.95;95834.09;5111387;28;20044;-73
2021/07/31 07:30:38;;;;;;;5.68;4.45;;;;;;;20.88;71.80;95836.06;5112221;28;20544;-73
2021/07/31 07:33:05;;;;;;;10.65;5.05;;;;;;;20.88;71.66;95833.31;5111598;28;20063;-72
2021/07/31 07:35:32;;;;;;;7.50;4.82;;;;;;;20.87;72.45;95831.69;5112245;28;20039;-73
2021/07/31 07:37:59;;;;;;;9.75;4.95;;;;;;;20.86;72.20;95841.19;5112284;28;20044;-72
2021/07/31 07:40:27;;;;;;;8.55;4.53;;;;;;;20.81;70.75;95833.28;5111644;28;20396;-73
2021/07/31 07:42:53;;;;;;;6.55;5.00;;;;;;;20.65;72.03;95836.47;5112126;28;20039;-72
2021/07/31 07:45:20;;;;;;;6.93;4.63;;;;;;;20.65;72.79;95842.00;5111559;28;20506;-72
2021/07/31 07:47:46;;;;;;;6.18;4.75;;;;;;;20.75;72.52;95834.88;5111695;28;20047;-72
2021/07/31 07:50:13;;;;;;;5.90;4.80;;;;;;;20.89;71.35;95834.88;5111153;28;20043;-73
2021/07/31 07:52:40;;;;;;;6.75;5.05;;;;;;;21.15;70.92;95830.09;5111871;28;20043;-74
2021/07/31 07:55:07;;;;;;;8.00;5.10;;;;;;;21.38;71.30;95833.19;5111026;28;20494;-74
2021/07/31 07:57:34;;;;;;;8.05;5.32;;;;;;;21.47;69.49;95841.09;5131639;27;20051;-74
2021/07/31 08:00:04;;;;;;;6.43;4.85;;;;;;;21.46;67.86;95836.75;5132366;27;20047;-75
2021/07/31 08:02:30;;;;;;;6.03;4.95;;;;;;;21.45;68.32;95838.69;5131921;27;20069;-74
2021/07/31 08:04:57;;;;;;;5.85;4.60;;;;;;;21.43;67.41;95835.56;5132079;27;20490;-74
2021/07/31 08:07:23;;;;;;;7.88;5.00;;;;;;;21.96;69.28;95834.53;5131714;27;20043;-74
2021/07/31 08:09:49;;;;;;;7.97;4.55;;;;;;;22.55;64.96;95840.13;5131999;27;20035;-74
2021/07/31 08:12:17;;;;;;;8.15;4.53;;;;;;;22.96;64.36;95828.28;5131736;27;20047;-74
2021/07/31 08:14:47;;;;;;;7.20;4.57;;;;;;;24.03;63.75;95832.63;5131576;27;20489;-75
2021/07/31 08:17:14;;;;;;;9.02;4.28;;;;;;;25.05;59.01;95822.28;5131404;27;20047;-74
2021/07/31 08:19:40;;;;;;;4.35;3.92;;;;;;;25.09;57.60;95823.81;5132058;27;20072;-75
2021/07/31 08:22:07;;;;;;;5.65;3.65;;;;;;;24.79;57.60;95826.72;5131853;27;20046;-73
2021/07/31 08:24:33;;;;;;;7.60;4.00;;;;;;;24.43;56.51;95838.41;5130512;28;20046;-74
2021/07/31 08:26:59;;;;;;;9.13;4.30;;;;;;;24.13;58.13;95837.25;5111277;28;20044;-74
2021/07/31 08:29:26;;;;;;;6.38;3.70;;;;;;;24.77;55.39;95829.16;5110557;28;20043;-75
2021/07/31 08:31:54;;;;;;;5.93;4.28;;;;;;;25.65;53.58;95832.31;5111252;28;20043;-75
2021/07/31 08:34:20;;;;;;;5.20;3.60;;;;;;;26.60;50.81;95832.69;5110834;28;20043;-74
2021/07/31 08:36:47;;;;;;;5.72;3.92;;;;;;;27.31;47.52;95837.28;5131618;28;20035;-74
2021/07/31 08:39:13;;;;;;;5.20;3.88;;;;;;;27.90;49.24;95837.28;5130910;28;20051;-74
2021/07/31 08:41:39;;;;;;;8.00;3.75;;;;;;;28.52;47.14;95837.84;5131437;28;20046;-74
2021/07/31 08:44:06;;;;;;;6.05;4.07;;;;;;;28.10;46.06;95835.09;5131270;28;20051;-75
2021/07/31 08:46:36;;;;;;;7.50;3.72;;;;;;;27.83;48.10;95839.06;5131758;28;20043;-74
2021/07/31 08:49:05;;;;;;;6.55;3.80;;;;;;;27.57;46.25;95840.19;5131244;28;20043;-73
2021/07/31 08:51:33;;;;;;;4.95;3.40;;;;;;;26.79;47.80;95838.19;5131751;28;20035;-74
2021/07/31 08:54:02;;;;;;;5.03;3.40;;;;;;;26.05;50.22;95848.25;5131502;28;20035;-74
2021/07/31 08:56:29;;;;;;;6.95;3.90;;;;;;;25.57;52.21;95842.03;5113378;28;20040;-74
2021/07/31 08:58:57;;;;;;;5.55;4.38;;;;;;;25.46;54.14;95836.66;5111006;28;20040;-74
2021/07/31 09:01:24;;;;;;;5.32;3.83;;;;;;;25.11;55.50;95832.56;5129300;28;20047;-74
2021/07/31 09:03:53;;;;;;;6.18;3.67;;;;;;;24.76;54.94;95833.16;5131527;28;20043;-74
2021/07/31 09:06:29;;;;;;;4.60;3.95;;;;;;;24.53;56.47;95837.47;5131225;28;20570;-74
2021/07/31 09:08:56;;;;;;;8.23;3.80;;;;;;;24.32;57.20;95848.91;5131489;28;20049;-74
2021/07/31 09:11:23;;;;;;;6.47;4.43;;;;;;;23.88;56.79;95834.03;5131012;28;20046;-74
2021/07/31 09:14:07;;;;;;;6.40;4.40;;;;;;;23.51;59.01;95837.63;5131672;28;20043;-74
2021/07/31 09:16:34;;;;;;;8.77;4.55;;;;;;;23.30;60.42;95836.66;5131414;28;20031;-74
2021/07/31 09:19:04;;;;;;;7.00;4.63;;;;;;;23.23;59.99;95847.88;5131525;28;20042;-74
2021/07/31 09:21:32;;;;;;;6.43;4.30;;;;;;;23.58;61.52;95840.31;5131218;28;20039;-74
2021/07/31 09:23:59;;;;;;;6.60;4.05;;;;;;;23.67;60.83;95846.97;5131354;28;20039;-75
2021/07/31 09:26:34;;;;;;;7.45;4.05;;;;;;;23.63;58.15;95840.66;5113535;28;20047;-74
2021/07/31 09:29:03;;;;;;;7.07;4.20;;;;;;;23.38;57.04;95848.47;5117690;27;20039;-74
2021/07/31 09:31:31;;;;;;;7.93;3.85;;;;;;;23.23;61.08;95847.88;5134862;27;20047;-74
2021/07/31 09:34:00;;;;;;;7.70;4.15;;;;;;;23.05;59.35;95845.25;5135260;27;20054;-74
2021/07/31 09:36:37;;;;;;;8.52;4.60;;;;;;;22.92;61.32;95846.97;5134608;27;20113;-74
2021/07/31 09:39:05;;;;;;;9.07;4.57;;;;;;;22.80;61.43;95852.97;5134518;27;20073;-73
2021/07/31 09:41:36;;;;;;;7.35;4.20;;;;;;;22.80;59.88;95852.97;5134944;27;20039;-74
2021/07/31 09:44:08;;;;;;;5.70;3.55;;;;;;;22.91;59.82;95842.59;5134532;27;20071;-73
2021/07/31 09:46:38;;;;;;;4.65;3.72;;;;;;;22.91;58.40;95839.81;5134747;27;20043;-74
2021/07/31 09:49:07;;;;;;;8.10;4.18;;;;;;;22.84;59.89;95848.97;5134550;27;20512;-73
2021/07/31 09:51:37;;;;;;;7.35;4.00;;;;;;;22.80;61.42;95841.88;5134947;27;20043;-74
2021/07/31 09:54:06;;;;;;;7.30;3.78;;;;;;;22.83;60.11;95847.41;5134401;27;20031;-73
2021/07/31 09:56:39;;;;;;;6.70;4.05;;;;;;;22.73;61.35;95842.72;5116215;27;20039;-74
2021/07/31 09:59:07;;;;;;;5.07;3.72;;;;;;;22.69;61.90;95855.84;5113640;28;20399;-74
2021/07/31 10:01:35;;;;;;;8.38;3.88;;;;;;;22.61;59.66;95852.34;5114145;28;20063;-75
2021/07/31 10:04:03;;;;;;;6.22;3.60;;;;;;;22.64;58.64;95845.97;5115670;27;20035;-73
2021/07/31 10:06:31;;;;;;;7.05;3.42;;;;;;;22.61;60.97;95851.56;5134687;27;20046;-74
2021/07/31 10:08:59;;;;;;;6.18;4.28;;;;;;;22.65;62.47;95847.53;5134464;27;20041;-74
2021/07/31 10:11:27;;;;;;;7.00;3.72;;;;;;;22.72;62.31;95845.94;5134020;27;20043;-74
2021/07/31 10:13:55;;;;;;;6.50;3.85;;;;;;;22.74;62.61;95844.31;5134251;27;20045;-74
2021/07/31 10:16:21;;;;;;;6.10;3.78;;;;;;;22.80;60.68;95848.22;5133603;27;20070;-74
2021/07/31 10:19:03;;;;;;;3.70;3.13;;;;;;;22.85;60.83;95845.00;5134123;27;20043;-74
2021/07/31 10:21:31;;;;;;;7.00;4.00;;;;;;;22.84;59.20;95839.88;5134078;27;20039;-74
2021/07/31 10:24:01;;;;;;;6.65;4.03;;;;;;;22.96;61.53;95838.59;5134029;27;20044;-74
2021/07/31 10:26:29;;;;;;;5.40;3.60;;;;;;;23.21;60.72;95832.78;5116104;27;20043;-75
2021/07/31 10:28:55;;;;;;;6.45;3.75;;;;;;;23.29;58.15;95842.63;5113595;28;20528;-74
2021/07/31 10:31:32;;;;;;;5.95;3.45;;;;;;;23.35;57.33;95830.66;5113382;27;20052;-74
2021/07/31 10:33:59;;;;;;;7.43;3.25;;;;;;;23.32;57.30;95841.81;5113543;27;20047;-74
2021/07/31 10:36:30;;;;;;;5.68;3.35;;;;;;;23.28;55.79;95832.72;5112784;28;20048;-75
2021/07/31 10:38:57;;;;;;;6.57;3.33;;;;;;;23.22;57.52;95826.81;5133336;27;20043;-74
2021/07/31 10:41:58;;;;;;;6.53;3.13;;;;;;;23.13;56.54;95827.31;5133402;27;20031;-74
2021/07/31 10:44:25;;;;;;;5.88;3.70;;;;;;;22.97;57.86;95829.06;5118145;27;20043;-76
2021/07/31 10:47:36;;;;;;;6.32;3.22;;;;;;;22.99;58.50;95821.91;5133848;27;20051;-74
2021/07/31 10:50:38;;;;;;;4.13;3.08;;;;;;;23.01;59.71;95825.03;5132964;27;20044;-74
2021/07/31 10:53:06;;;;;;;5.20;3.30;;;;;;;22.99;59.44;95819.13;5133153;27;20043;-75
2021/07/31 10:56:00;;;;;;;4.25;3.30;;;;;;;23.04;59.51;95818.69;5123677;27;20031;-75
2021/07/31 10:58:31;;;;;;;4.68;2.90;;;;;;;23.05;57.66;95820.25;5112740;28;20390;-75
2021/07/31 11:01:22;;;;;;;5.28;3.70;;;;;;;23.07;55.83;95817.06;5133407;27;20043;-75
2021/07/31 11:03:49;;;;;;;5.82;3.53;;;;;;;23.34;55.80;95825.53;5133142;27;20451;-75
2021/07/31 11:06:16;;;;;;;7.80;3.40;;;;;;;23.60;55.07;95827.59;5133003;27;20406;-76
2021/07/31 11:09:12;;;;;;;5.75;2.90;;;;;;;23.59;54.50;95828.00;5133224;27;20062;-75
2021/07/31 11:11:39;;;;;;;5.22;3.05;;;;;;;23.65;56.87;95821.59;5133026;27;20096;-76
2021/07/31 11:14:08;;;;;;;6.30;3.08;;;;;;;23.69;55.30;95825.09;5132783;27;20051;-74
2021/07/31 11:16:34;;;;;;;4.75;3.33;;;;;;;23.89;58.01;95824.47;5133083;27;20041;-75
2021/07/31 11:19:02;;;;;;;6.28;3.10;;;;;;;24.14;53.66;95822.13;5133078;27;20091;-74
2021/07/31 11:21:30;;;;;;;6.28;3.05;;;;;;;24.26;53.88;95819.97;5132955;27;20482;-75
2021/07/31 11:23:58;;;;;;;5.07;2.83;;;;;;;24.49;59.47;95820.06;5132734;27;20501;-75
2021/07/31 11:26:42;;;;;;;7.30;3.00;;;;;;;24.76;50.71;95810.88;5115051;27;20142;-75
2021/07/31 11:29:13;;;;;;;4.63;3.20;;;;;;;24.77;52.53;95813.22;5131984;27;20043;-74
2021/07/31 11:31:41;;;;;;;5.25;3.05;;;;;;;24.88;56.78;95802.69;5132925;27;20508;-75
2021/07/31 11:34:09;;;;;;;6.55;2.88;;;;;;;25.06;51.10;95818.28;5132489;27;20046;-75
2021/07/31 11:36:37;;;;;;;4.35;2.70;;;;;;;25.13;52.43;95813.41;5132572;27;20515;-73